sensor_id;sensor_type;location;lat;lon;timestamp;P1;durP1;ratioP1;P2;durP2;ratioP2
5674;SDS011;2860;54.284;10.158;2024-02-21T00:00:09;42.20;;;22.08;;
5674;SDS011;2860;54.284;10.158;2024-02-21T00:02:36;58.20;;;22.80;;
5674;SDS011;2860;54.284;10.158;2024-02-21T00:05:02;51.42;;;21.83;;
5674;SDS011;2860;54.284;10.158;2024-02-21T00:07:27;49.67;;;22.02;;
5674;SDS011;2860;54.284;10.158;2024-02-21T00:09:53;61.22;;;24.30;;
5674;SDS011;2860;54.284;10.158;2024-02-21T00:12:19;53.78;;;23.70;;
5674;SDS011;2860;54.284;10.158;2024-02-21T00:14:44;56.90;;;23.48;;
5674;SDS011;2860;54.284;10.158;2024-02-21T00:17:10;56.00;;;23.60;;
5674;SDS011;2860;54.284;10.158;2024-02-21T00:19:35;67.28;;;25.50;;
5674;SDS011;2860;54.284;10.158;2024-02-21T00:22:01;52.95;;;24.00;;
5674;SDS011;2860;54.284;10.158;2024-02-21T00:24:27;63.17;;;23.60;;
5674;SDS011;2860;54.284;10.158;2024-02-21T00:26:53;52.60;;;23.45;;
5674;SDS011;2860;54.284;10.158;2024-02-21T00:29:19;57.78;;;25.13;;
5674;SDS011;2860;54.284;10.158;2024-02-21T00:31:44;62.83;;;24.13;;
5674;SDS011;2860;54.284;10.158;2024-02-21T00:34:10;55.78;;;22.58;;
5674;SDS011;2860;54.284;10.158;2024-02-21T00:36:37;42.83;;;23.60;;
5674;SDS011;2860;54.284;10.158;2024-02-21T00:39:03;61.78;;;24.63;;
5674;SDS011;2860;54.284;10.158;2024-02-21T00:41:29;45.60;;;23.40;;
5674;SDS011;2860;54.284;10.158;2024-02-21T00:43:54;52.30;;;23.50;;
5674;SDS011;2860;54.284;10.158;2024-02-21T00:46:20;55.67;;;24.52;;
5674;SDS011;2860;54.284;10.158;2024-02-21T00:48:45;57.03;;;23.10;;
5674;SDS011;2860;54.284;10.158;2024-02-21T00:51:11;51.67;;;23.08;;
5674;SDS011;2860;54.284;10.158;2024-02-21T00:53:36;57.83;;;27.45;;
5674;SDS011;2860;54.284;10.158;2024-02-21T00:56:03;54.42;;;25.08;;
5674;SDS011;2860;54.284;10.158;2024-02-21T00:58:32;60.33;;;26.92;;
5674;SDS011;2860;54.284;10.158;2024-02-21T01:00:57;63.08;;;28.73;;
5674;SDS011;2860;54.284;10.158;2024-02-21T01:03:23;58.25;;;26.17;;
5674;SDS011;2860;54.284;10.158;2024-02-21T01:05:48;68.88;;;29.02;;
5674;SDS011;2860;54.284;10.158;2024-02-21T01:08:14;54.90;;;27.63;;
5674;SDS011;2860;54.284;10.158;2024-02-21T01:10:39;59.00;;;25.83;;
5674;SDS011;2860;54.284;10.158;2024-02-21T01:13:05;59.67;;;24.88;;
5674;SDS011;2860;54.284;10.158;2024-02-21T01:15:32;54.28;;;26.40;;
5674;SDS011;2860;54.284;10.158;2024-02-21T01:17:58;63.53;;;26.25;;
5674;SDS011;2860;54.284;10.158;2024-02-21T01:20:23;46.35;;;23.23;;
5674;SDS011;2860;54.284;10.158;2024-02-21T01:22:49;59.60;;;25.05;;
5674;SDS011;2860;54.284;10.158;2024-02-21T01:25:14;47.45;;;25.52;;
5674;SDS011;2860;54.284;10.158;2024-02-21T01:27:40;56.10;;;24.90;;
5674;SDS011;2860;54.284;10.158;2024-02-21T01:30:05;52.42;;;23.88;;
5674;SDS011;2860;54.284;10.158;2024-02-21T01:32:32;45.55;;;21.98;;
5674;SDS011;2860;54.284;10.158;2024-02-21T01:34:57;33.55;;;20.60;;
5674;SDS011;2860;54.284;10.158;2024-02-21T01:37:23;45.83;;;23.08;;
5674;SDS011;2860;54.284;10.158;2024-02-21T01:39:48;43.88;;;20.15;;
5674;SDS011;2860;54.284;10.158;2024-02-21T01:42:14;49.25;;;22.40;;
5674;SDS011;2860;54.284;10.158;2024-02-21T01:44:40;44.88;;;22.13;;
5674;SDS011;2860;54.284;10.158;2024-02-21T01:47:06;42.60;;;18.75;;
5674;SDS011;2860;54.284;10.158;2024-02-21T01:49:32;31.63;;;17.98;;
5674;SDS011;2860;54.284;10.158;2024-02-21T01:51:58;31.42;;;18.30;;
5674;SDS011;2860;54.284;10.158;2024-02-21T01:54:24;38.17;;;19.25;;
5674;SDS011;2860;54.284;10.158;2024-02-21T01:56:53;36.58;;;18.52;;
5674;SDS011;2860;54.284;10.158;2024-02-21T01:59:19;30.08;;;16.35;;
5674;SDS011;2860;54.284;10.158;2024-02-21T02:01:46;29.75;;;16.92;;
5674;SDS011;2860;54.284;10.158;2024-02-21T02:04:12;29.75;;;17.13;;
5674;SDS011;2860;54.284;10.158;2024-02-21T02:06:38;35.10;;;18.40;;
5674;SDS011;2860;54.284;10.158;2024-02-21T02:09:04;34.13;;;16.45;;
5674;SDS011;2860;54.284;10.158;2024-02-21T02:11:31;29.17;;;15.75;;
5674;SDS011;2860;54.284;10.158;2024-02-21T02:13:57;25.13;;;15.45;;
5674;SDS011;2860;54.284;10.158;2024-02-21T02:16:22;24.50;;;16.73;;
5674;SDS011;2860;54.284;10.158;2024-02-21T02:18:48;29.30;;;17.55;;
5674;SDS011;2860;54.284;10.158;2024-02-21T02:21:16;21.00;;;16.38;;
5674;SDS011;2860;54.284;10.158;2024-02-21T02:23:49;31.35;;;17.35;;
5674;SDS011;2860;54.284;10.158;2024-02-21T02:26:15;27.73;;;16.75;;
5674;SDS011;2860;54.284;10.158;2024-02-21T02:28:40;30.45;;;16.65;;
5674;SDS011;2860;54.284;10.158;2024-02-21T02:31:06;34.53;;;16.90;;
5674;SDS011;2860;54.284;10.158;2024-02-21T02:33:31;28.90;;;15.73;;
5674;SDS011;2860;54.284;10.158;2024-02-21T02:35:57;28.05;;;16.05;;
5674;SDS011;2860;54.284;10.158;2024-02-21T02:38:23;34.63;;;17.92;;
5674;SDS011;2860;54.284;10.158;2024-02-21T02:40:49;25.05;;;17.08;;
5674;SDS011;2860;54.284;10.158;2024-02-21T02:43:14;31.95;;;17.73;;
5674;SDS011;2860;54.284;10.158;2024-02-21T02:45:40;24.90;;;16.13;;
5674;SDS011;2860;54.284;10.158;2024-02-21T02:48:05;25.67;;;14.07;;
5674;SDS011;2860;54.284;10.158;2024-02-21T02:50:31;31.08;;;18.40;;
5674;SDS011;2860;54.284;10.158;2024-02-21T02:52:57;27.35;;;15.65;;
5674;SDS011;2860;54.284;10.158;2024-02-21T02:55:22;31.23;;;15.57;;
5674;SDS011;2860;54.284;10.158;2024-02-21T02:57:48;22.17;;;15.18;;
5674;SDS011;2860;54.284;10.158;2024-02-21T03:00:14;21.25;;;15.02;;
5674;SDS011;2860;54.284;10.158;2024-02-21T03:02:40;19.40;;;14.00;;
5674;SDS011;2860;54.284;10.158;2024-02-21T03:05:13;26.05;;;13.73;;
5674;SDS011;2860;54.284;10.158;2024-02-21T03:07:40;20.77;;;13.43;;
5674;SDS011;2860;54.284;10.158;2024-02-21T03:10:06;20.20;;;12.30;;
5674;SDS011;2860;54.284;10.158;2024-02-21T03:12:31;19.13;;;12.68;;
5674;SDS011;2860;54.284;10.158;2024-02-21T03:14:57;17.63;;;12.45;;
5674;SDS011;2860;54.284;10.158;2024-02-21T03:17:23;15.52;;;11.25;;
5674;SDS011;2860;54.284;10.158;2024-02-21T03:19:49;18.13;;;10.63;;
5674;SDS011;2860;54.284;10.158;2024-02-21T03:22:15;12.10;;;10.10;;
5674;SDS011;2860;54.284;10.158;2024-02-21T03:24:41;10.65;;;8.30;;
5674;SDS011;2860;54.284;10.158;2024-02-21T03:27:07;10.80;;;8.40;;
5674;SDS011;2860;54.284;10.158;2024-02-21T03:29:33;11.68;;;7.47;;
5674;SDS011;2860;54.284;10.158;2024-02-21T03:31:58;12.65;;;6.80;;
5674;SDS011;2860;54.284;10.158;2024-02-21T03:34:24;11.35;;;7.13;;
5674;SDS011;2860;54.284;10.158;2024-02-21T03:36:49;4.85;;;4.53;;
5674;SDS011;2860;54.284;10.158;2024-02-21T03:39:15;4.65;;;4.25;;
5674;SDS011;2860;54.284;10.158;2024-02-21T03:41:41;3.75;;;3.53;;
5674;SDS011;2860;54.284;10.158;2024-02-21T03:44:06;3.30;;;3.20;;
5674;SDS011;2860;54.284;10.158;2024-02-21T03:46:31;3.38;;;2.72;;
5674;SDS011;2860;54.284;10.158;2024-02-21T03:48:57;4.50;;;2.05;;
5674;SDS011;2860;54.284;10.158;2024-02-21T03:51:22;2.67;;;2.10;;
5674;SDS011;2860;54.284;10.158;2024-02-21T03:53:49;2.78;;;2.03;;
5674;SDS011;2860;54.284;10.158;2024-02-21T03:56:14;1.85;;;1.55;;
5674;SDS011;2860;54.284;10.158;2024-02-21T03:58:39;2.40;;;1.30;;
5674;SDS011;2860;54.284;10.158;2024-02-21T04:01:05;1.92;;;1.92;;
5674;SDS011;2860;54.284;10.158;2024-02-21T04:03:30;1.60;;;1.58;;
5674;SDS011;2860;54.284;10.158;2024-02-21T04:05:56;2.13;;;1.80;;
5674;SDS011;2860;54.284;10.158;2024-02-21T04:08:25;3.65;;;1.50;;
5674;SDS011;2860;54.284;10.158;2024-02-21T04:10:50;1.83;;;1.73;;
5674;SDS011;2860;54.284;10.158;2024-02-21T04:13:16;4.93;;;1.45;;
5674;SDS011;2860;54.284;10.158;2024-02-21T04:15:41;4.43;;;1.70;;
5674;SDS011;2860;54.284;10.158;2024-02-21T04:18:07;7.13;;;2.15;;
5674;SDS011;2860;54.284;10.158;2024-02-21T04:20:33;5.35;;;1.77;;
5674;SDS011;2860;54.284;10.158;2024-02-21T04:22:59;6.10;;;2.10;;
5674;SDS011;2860;54.284;10.158;2024-02-21T04:25:25;5.78;;;1.75;;
5674;SDS011;2860;54.284;10.158;2024-02-21T04:27:51;6.90;;;2.03;;
5674;SDS011;2860;54.284;10.158;2024-02-21T04:30:16;9.63;;;2.53;;
5674;SDS011;2860;54.284;10.158;2024-02-21T04:32:42;3.05;;;1.73;;
5674;SDS011;2860;54.284;10.158;2024-02-21T04:35:08;8.27;;;2.85;;
5674;SDS011;2860;54.284;10.158;2024-02-21T04:37:34;15.02;;;3.20;;
5674;SDS011;2860;54.284;10.158;2024-02-21T04:39:59;11.65;;;2.97;;
5674;SDS011;2860;54.284;10.158;2024-02-21T04:42:25;14.20;;;3.20;;
5674;SDS011;2860;54.284;10.158;2024-02-21T04:44:50;12.60;;;3.30;;
5674;SDS011;2860;54.284;10.158;2024-02-21T04:47:16;5.75;;;2.60;;
5674;SDS011;2860;54.284;10.158;2024-02-21T04:49:42;14.80;;;2.72;;
5674;SDS011;2860;54.284;10.158;2024-02-21T04:52:07;10.55;;;3.30;;
5674;SDS011;2860;54.284;10.158;2024-02-21T04:54:33;15.32;;;3.58;;
5674;SDS011;2860;54.284;10.158;2024-02-21T04:57:00;19.55;;;3.30;;
5674;SDS011;2860;54.284;10.158;2024-02-21T04:59:26;11.93;;;3.63;;
5674;SDS011;2860;54.284;10.158;2024-02-21T05:01:51;15.40;;;3.88;;
5674;SDS011;2860;54.284;10.158;2024-02-21T05:04:17;11.88;;;3.55;;
5674;SDS011;2860;54.284;10.158;2024-02-21T05:06:42;22.30;;;3.85;;
5674;SDS011;2860;54.284;10.158;2024-02-21T05:09:08;9.90;;;3.95;;
5674;SDS011;2860;54.284;10.158;2024-02-21T05:11:34;16.85;;;5.25;;
5674;SDS011;2860;54.284;10.158;2024-02-21T05:14:00;14.88;;;4.18;;
5674;SDS011;2860;54.284;10.158;2024-02-21T05:16:26;26.42;;;5.43;;
5674;SDS011;2860;54.284;10.158;2024-02-21T05:18:51;23.70;;;4.53;;
5674;SDS011;2860;54.284;10.158;2024-02-21T05:21:17;19.90;;;5.38;;
5674;SDS011;2860;54.284;10.158;2024-02-21T05:23:42;16.77;;;5.15;;
5674;SDS011;2860;54.284;10.158;2024-02-21T05:26:08;25.67;;;4.63;;
5674;SDS011;2860;54.284;10.158;2024-02-21T05:28:34;24.10;;;4.30;;
5674;SDS011;2860;54.284;10.158;2024-02-21T05:30:59;13.65;;;3.67;;
5674;SDS011;2860;54.284;10.158;2024-02-21T05:33:25;14.60;;;3.70;;
5674;SDS011;2860;54.284;10.158;2024-02-21T05:35:51;22.25;;;5.13;;
5674;SDS011;2860;54.284;10.158;2024-02-21T05:38:16;22.10;;;5.07;;
5674;SDS011;2860;54.284;10.158;2024-02-21T05:40:42;24.52;;;5.03;;
5674;SDS011;2860;54.284;10.158;2024-02-21T05:43:09;20.10;;;4.57;;
5674;SDS011;2860;54.284;10.158;2024-02-21T05:45:35;16.98;;;4.82;;
5674;SDS011;2860;54.284;10.158;2024-02-21T05:48:00;27.63;;;4.57;;
5674;SDS011;2860;54.284;10.158;2024-02-21T05:50:27;26.83;;;5.18;;
5674;SDS011;2860;54.284;10.158;2024-02-21T05:52:56;34.28;;;4.55;;
5674;SDS011;2860;54.284;10.158;2024-02-21T05:55:21;26.20;;;5.40;;
5674;SDS011;2860;54.284;10.158;2024-02-21T05:57:47;35.15;;;5.75;;
5674;SDS011;2860;54.284;10.158;2024-02-21T06:00:13;20.05;;;5.53;;
5674;SDS011;2860;54.284;10.158;2024-02-21T06:02:39;24.48;;;4.60;;
5674;SDS011;2860;54.284;10.158;2024-02-21T06:05:05;22.90;;;5.63;;
5674;SDS011;2860;54.284;10.158;2024-02-21T06:07:32;33.28;;;5.95;;
5674;SDS011;2860;54.284;10.158;2024-02-21T06:09:58;25.50;;;5.88;;
5674;SDS011;2860;54.284;10.158;2024-02-21T06:12:23;22.92;;;5.25;;
5674;SDS011;2860;54.284;10.158;2024-02-21T06:14:49;30.65;;;5.10;;
5674;SDS011;2860;54.284;10.158;2024-02-21T06:17:15;27.02;;;6.00;;
5674;SDS011;2860;54.284;10.158;2024-02-21T06:19:41;47.22;;;5.05;;
5674;SDS011;2860;54.284;10.158;2024-02-21T06:22:08;23.40;;;5.07;;
5674;SDS011;2860;54.284;10.158;2024-02-21T06:24:34;23.25;;;4.00;;
5674;SDS011;2860;54.284;10.158;2024-02-21T06:27:00;31.77;;;6.38;;
5674;SDS011;2860;54.284;10.158;2024-02-21T06:29:25;17.70;;;4.90;;
5674;SDS011;2860;54.284;10.158;2024-02-21T06:31:51;17.63;;;4.63;;
5674;SDS011;2860;54.284;10.158;2024-02-21T06:34:16;25.77;;;4.97;;
5674;SDS011;2860;54.284;10.158;2024-02-21T06:36:42;26.92;;;5.97;;
5674;SDS011;2860;54.284;10.158;2024-02-21T06:39:07;25.05;;;5.45;;
5674;SDS011;2860;54.284;10.158;2024-02-21T06:41:33;23.95;;;5.15;;
5674;SDS011;2860;54.284;10.158;2024-02-21T06:43:59;21.38;;;4.05;;
5674;SDS011;2860;54.284;10.158;2024-02-21T06:46:28;32.55;;;4.53;;
5674;SDS011;2860;54.284;10.158;2024-02-21T06:48:54;18.77;;;4.30;;
5674;SDS011;2860;54.284;10.158;2024-02-21T06:51:21;24.60;;;4.65;;
5674;SDS011;2860;54.284;10.158;2024-02-21T06:53:47;30.15;;;5.18;;
5674;SDS011;2860;54.284;10.158;2024-02-21T06:56:13;31.92;;;4.75;;
5674;SDS011;2860;54.284;10.158;2024-02-21T06:58:38;11.30;;;3.03;;
5674;SDS011;2860;54.284;10.158;2024-02-21T07:01:04;17.42;;;4.03;;
5674;SDS011;2860;54.284;10.158;2024-02-21T07:03:30;25.27;;;3.88;;
5674;SDS011;2860;54.284;10.158;2024-02-21T07:05:55;24.90;;;4.47;;
5674;SDS011;2860;54.284;10.158;2024-02-21T07:08:21;25.88;;;4.72;;
5674;SDS011;2860;54.284;10.158;2024-02-21T07:10:46;25.80;;;4.30;;
5674;SDS011;2860;54.284;10.158;2024-02-21T07:13:12;25.52;;;4.97;;
5674;SDS011;2860;54.284;10.158;2024-02-21T07:15:38;23.38;;;4.75;;
5674;SDS011;2860;54.284;10.158;2024-02-21T07:18:04;26.15;;;3.75;;
5674;SDS011;2860;54.284;10.158;2024-02-21T07:20:29;29.10;;;4.13;;
5674;SDS011;2860;54.284;10.158;2024-02-21T07:22:55;27.52;;;3.95;;
5674;SDS011;2860;54.284;10.158;2024-02-21T07:25:20;18.35;;;5.80;;
5674;SDS011;2860;54.284;10.158;2024-02-21T07:27:46;23.75;;;4.68;;
5674;SDS011;2860;54.284;10.158;2024-02-21T07:30:11;24.98;;;3.53;;
5674;SDS011;2860;54.284;10.158;2024-02-21T07:32:37;22.08;;;4.22;;
5674;SDS011;2860;54.284;10.158;2024-02-21T07:35:03;12.57;;;3.22;;
5674;SDS011;2860;54.284;10.158;2024-02-21T07:37:30;17.48;;;4.07;;
5674;SDS011;2860;54.284;10.158;2024-02-21T07:39:56;19.30;;;4.13;;
5674;SDS011;2860;54.284;10.158;2024-02-21T07:42:21;15.52;;;4.07;;
5674;SDS011;2860;54.284;10.158;2024-02-21T07:44:47;21.45;;;4.47;;
5674;SDS011;2860;54.284;10.158;2024-02-21T07:47:12;18.15;;;3.25;;
5674;SDS011;2860;54.284;10.158;2024-02-21T07:49:41;22.83;;;4.32;;
5674;SDS011;2860;54.284;10.158;2024-02-21T07:52:08;17.85;;;3.58;;
5674;SDS011;2860;54.284;10.158;2024-02-21T07:54:34;18.42;;;3.72;;
5674;SDS011;2860;54.284;10.158;2024-02-21T07:57:00;23.67;;;4.13;;
5674;SDS011;2860;54.284;10.158;2024-02-21T07:59:26;18.50;;;3.30;;
5674;SDS011;2860;54.284;10.158;2024-02-21T08:01:51;22.92;;;4.68;;
5674;SDS011;2860;54.284;10.158;2024-02-21T08:04:17;25.88;;;3.70;;
5674;SDS011;2860;54.284;10.158;2024-02-21T08:06:42;22.75;;;4.00;;
5674;SDS011;2860;54.284;10.158;2024-02-21T08:09:10;33.55;;;4.93;;
5674;SDS011;2860;54.284;10.158;2024-02-21T08:11:35;26.20;;;4.68;;
5674;SDS011;2860;54.284;10.158;2024-02-21T08:14:01;23.73;;;3.78;;
5674;SDS011;2860;54.284;10.158;2024-02-21T08:16:28;17.50;;;3.38;;
5674;SDS011;2860;54.284;10.158;2024-02-21T08:18:53;22.60;;;4.75;;
5674;SDS011;2860;54.284;10.158;2024-02-21T08:21:19;26.02;;;5.05;;
5674;SDS011;2860;54.284;10.158;2024-02-21T08:23:44;20.23;;;3.78;;
5674;SDS011;2860;54.284;10.158;2024-02-21T08:26:10;21.40;;;4.45;;
5674;SDS011;2860;54.284;10.158;2024-02-21T08:28:36;35.58;;;4.78;;
5674;SDS011;2860;54.284;10.158;2024-02-21T08:31:02;23.13;;;4.20;;
5674;SDS011;2860;54.284;10.158;2024-02-21T08:33:27;34.97;;;4.85;;
5674;SDS011;2860;54.284;10.158;2024-02-21T08:35:54;35.25;;;4.45;;
5674;SDS011;2860;54.284;10.158;2024-02-21T08:38:20;24.98;;;3.53;;
5674;SDS011;2860;54.284;10.158;2024-02-21T08:40:45;13.75;;;3.25;;
5674;SDS011;2860;54.284;10.158;2024-02-21T08:43:12;21.48;;;3.40;;
5674;SDS011;2860;54.284;10.158;2024-02-21T08:45:37;18.20;;;4.25;;
5674;SDS011;2860;54.284;10.158;2024-02-21T08:48:03;28.25;;;3.15;;
5674;SDS011;2860;54.284;10.158;2024-02-21T08:50:29;25.73;;;3.97;;
5674;SDS011;2860;54.284;10.158;2024-02-21T08:52:54;21.90;;;3.47;;
5674;SDS011;2860;54.284;10.158;2024-02-21T08:55:20;23.10;;;3.75;;
5674;SDS011;2860;54.284;10.158;2024-02-21T08:57:45;24.60;;;4.60;;
5674;SDS011;2860;54.284;10.158;2024-02-21T09:00:11;28.58;;;3.80;;
5674;SDS011;2860;54.284;10.158;2024-02-21T09:02:40;21.85;;;3.05;;
5674;SDS011;2860;54.284;10.158;2024-02-21T09:05:10;26.73;;;3.15;;
5674;SDS011;2860;54.284;10.158;2024-02-21T09:07:38;23.42;;;3.72;;
5674;SDS011;2860;54.284;10.158;2024-02-21T09:10:03;19.98;;;3.45;;
5674;SDS011;2860;54.284;10.158;2024-02-21T09:12:29;25.98;;;3.95;;
5674;SDS011;2860;54.284;10.158;2024-02-21T09:14:55;19.65;;;4.03;;
5674;SDS011;2860;54.284;10.158;2024-02-21T09:17:20;19.83;;;2.92;;
5674;SDS011;2860;54.284;10.158;2024-02-21T09:19:46;18.85;;;2.92;;
5674;SDS011;2860;54.284;10.158;2024-02-21T09:22:13;23.17;;;4.28;;
5674;SDS011;2860;54.284;10.158;2024-02-21T09:24:38;39.00;;;3.95;;
5674;SDS011;2860;54.284;10.158;2024-02-21T09:27:04;20.98;;;4.22;;
5674;SDS011;2860;54.284;10.158;2024-02-21T09:29:30;25.15;;;4.53;;
5674;SDS011;2860;54.284;10.158;2024-02-21T09:31:57;12.80;;;2.80;;
5674;SDS011;2860;54.284;10.158;2024-02-21T09:34:24;17.05;;;4.28;;
5674;SDS011;2860;54.284;10.158;2024-02-21T09:36:49;21.15;;;3.70;;
5674;SDS011;2860;54.284;10.158;2024-02-21T09:39:15;21.35;;;4.35;;
5674;SDS011;2860;54.284;10.158;2024-02-21T09:41:44;16.48;;;3.17;;
5674;SDS011;2860;54.284;10.158;2024-02-21T09:44:13;21.27;;;3.95;;
5674;SDS011;2860;54.284;10.158;2024-02-21T09:46:50;17.95;;;4.25;;
5674;SDS011;2860;54.284;10.158;2024-02-21T09:49:32;22.13;;;2.92;;
5674;SDS011;2860;54.284;10.158;2024-02-21T09:52:02;19.40;;;3.80;;
5674;SDS011;2860;54.284;10.158;2024-02-21T09:54:32;15.45;;;3.28;;
5674;SDS011;2860;54.284;10.158;2024-02-21T09:57:01;12.07;;;3.00;;
5674;SDS011;2860;54.284;10.158;2024-02-21T09:59:28;18.05;;;3.67;;
5674;SDS011;2860;54.284;10.158;2024-02-21T10:01:55;23.02;;;4.30;;
5674;SDS011;2860;54.284;10.158;2024-02-21T10:04:20;19.90;;;4.65;;
5674;SDS011;2860;54.284;10.158;2024-02-21T10:06:46;27.58;;;3.15;;
5674;SDS011;2860;54.284;10.158;2024-02-21T10:09:27;10.60;;;3.83;;
5674;SDS011;2860;54.284;10.158;2024-02-21T10:11:54;16.10;;;3.28;;
5674;SDS011;2860;54.284;10.158;2024-02-21T10:14:20;15.35;;;4.07;;
5674;SDS011;2860;54.284;10.158;2024-02-21T10:16:47;12.48;;;4.18;;
5674;SDS011;2860;54.284;10.158;2024-02-21T10:19:19;13.10;;;3.58;;
5674;SDS011;2860;54.284;10.158;2024-02-21T10:22:01;27.20;;;4.00;;
5674;SDS011;2860;54.284;10.158;2024-02-21T10:24:28;13.40;;;3.35;;
5674;SDS011;2860;54.284;10.158;2024-02-21T10:27:04;14.98;;;3.45;;
5674;SDS011;2860;54.284;10.158;2024-02-21T10:29:33;18.65;;;4.05;;
5674;SDS011;2860;54.284;10.158;2024-02-21T10:32:05;17.52;;;4.75;;
5674;SDS011;2860;54.284;10.158;2024-02-21T10:34:41;17.65;;;3.70;;
5674;SDS011;2860;54.284;10.158;2024-02-21T10:37:09;11.95;;;2.92;;
5674;SDS011;2860;54.284;10.158;2024-02-21T10:39:38;17.67;;;3.78;;
5674;SDS011;2860;54.284;10.158;2024-02-21T10:42:05;20.33;;;3.55;;
5674;SDS011;2860;54.284;10.158;2024-02-21T10:44:31;14.60;;;3.08;;
5674;SDS011;2860;54.284;10.158;2024-02-21T10:46:58;18.48;;;3.88;;
5674;SDS011;2860;54.284;10.158;2024-02-21T10:49:25;14.38;;;3.67;;
5674;SDS011;2860;54.284;10.158;2024-02-21T10:52:17;21.92;;;3.72;;
5674;SDS011;2860;54.284;10.158;2024-02-21T10:57:25;16.08;;;2.50;;
5674;SDS011;2860;54.284;10.158;2024-02-21T10:59:52;14.02;;;2.25;;
5674;SDS011;2860;54.284;10.158;2024-02-21T11:02:19;21.10;;;3.15;;
5674;SDS011;2860;54.284;10.158;2024-02-21T11:04:45;8.40;;;2.38;;
5674;SDS011;2860;54.284;10.158;2024-02-21T11:07:12;11.23;;;2.38;;
5674;SDS011;2860;54.284;10.158;2024-02-21T11:09:39;19.63;;;3.17;;
5674;SDS011;2860;54.284;10.158;2024-02-21T11:12:05;12.52;;;3.65;;
5674;SDS011;2860;54.284;10.158;2024-02-21T11:14:31;9.38;;;2.13;;
5674;SDS011;2860;54.284;10.158;2024-02-21T11:16:57;13.20;;;3.33;;
5674;SDS011;2860;54.284;10.158;2024-02-21T11:19:26;14.45;;;2.53;;
5674;SDS011;2860;54.284;10.158;2024-02-21T11:21:53;15.90;;;2.95;;
5674;SDS011;2860;54.284;10.158;2024-02-21T11:24:30;14.80;;;3.92;;
5674;SDS011;2860;54.284;10.158;2024-02-21T11:27:41;10.55;;;3.40;;
5674;SDS011;2860;54.284;10.158;2024-02-21T11:29:49;15.25;;;3.35;;
5674;SDS011;2860;54.284;10.158;2024-02-21T11:32:19;15.02;;;2.97;;
5674;SDS011;2860;54.284;10.158;2024-02-21T11:34:55;7.70;;;2.78;;
5674;SDS011;2860;54.284;10.158;2024-02-21T11:37:28;7.07;;;2.40;;
5674;SDS011;2860;54.284;10.158;2024-02-21T11:39:55;13.13;;;3.35;;
5674;SDS011;2860;54.284;10.158;2024-02-21T11:42:21;14.57;;;2.60;;
5674;SDS011;2860;54.284;10.158;2024-02-21T11:44:47;12.25;;;2.70;;
5674;SDS011;2860;54.284;10.158;2024-02-21T11:47:13;9.23;;;2.25;;
5674;SDS011;2860;54.284;10.158;2024-02-21T11:49:44;20.27;;;3.47;;
5674;SDS011;2860;54.284;10.158;2024-02-21T11:52:11;13.75;;;3.08;;
5674;SDS011;2860;54.284;10.158;2024-02-21T11:54:40;10.52;;;2.67;;
5674;SDS011;2860;54.284;10.158;2024-02-21T11:57:06;7.30;;;2.95;;
5674;SDS011;2860;54.284;10.158;2024-02-21T11:59:31;11.10;;;2.67;;
5674;SDS011;2860;54.284;10.158;2024-02-21T12:01:58;11.10;;;3.45;;
5674;SDS011;2860;54.284;10.158;2024-02-21T12:04:25;9.57;;;3.15;;
5674;SDS011;2860;54.284;10.158;2024-02-21T12:06:51;10.35;;;2.85;;
5674;SDS011;2860;54.284;10.158;2024-02-21T12:09:18;9.07;;;2.90;;
5674;SDS011;2860;54.284;10.158;2024-02-21T12:11:44;9.85;;;2.97;;
5674;SDS011;2860;54.284;10.158;2024-02-21T12:14:11;12.85;;;5.03;;
5674;SDS011;2860;54.284;10.158;2024-02-21T12:16:40;9.68;;;3.80;;
5674;SDS011;2860;54.284;10.158;2024-02-21T12:19:07;8.70;;;3.00;;
5674;SDS011;2860;54.284;10.158;2024-02-21T12:21:34;14.48;;;4.07;;
5674;SDS011;2860;54.284;10.158;2024-02-21T12:24:11;11.48;;;3.85;;
5674;SDS011;2860;54.284;10.158;2024-02-21T12:26:38;13.07;;;4.65;;
5674;SDS011;2860;54.284;10.158;2024-02-21T12:29:03;6.35;;;3.08;;
5674;SDS011;2860;54.284;10.158;2024-02-21T12:31:29;8.65;;;3.80;;
5674;SDS011;2860;54.284;10.158;2024-02-21T12:33:54;11.95;;;3.85;;
5674;SDS011;2860;54.284;10.158;2024-02-21T12:36:20;8.52;;;3.50;;
5674;SDS011;2860;54.284;10.158;2024-02-21T12:38:45;9.77;;;3.65;;
5674;SDS011;2860;54.284;10.158;2024-02-21T12:41:13;10.32;;;3.97;;
5674;SDS011;2860;54.284;10.158;2024-02-21T12:43:39;5.85;;;3.05;;
5674;SDS011;2860;54.284;10.158;2024-02-21T12:46:05;7.20;;;3.85;;
5674;SDS011;2860;54.284;10.158;2024-02-21T12:48:32;4.55;;;4.25;;
5674;SDS011;2860;54.284;10.158;2024-02-21T12:50:58;8.18;;;3.67;;
5674;SDS011;2860;54.284;10.158;2024-02-21T12:53:23;8.70;;;4.13;;
5674;SDS011;2860;54.284;10.158;2024-02-21T12:55:49;9.63;;;4.45;;
5674;SDS011;2860;54.284;10.158;2024-02-21T12:58:15;11.82;;;4.82;;
5674;SDS011;2860;54.284;10.158;2024-02-21T13:00:41;7.18;;;4.70;;
5674;SDS011;2860;54.284;10.158;2024-02-21T13:03:07;10.48;;;4.95;;
5674;SDS011;2860;54.284;10.158;2024-02-21T13:05:35;5.43;;;4.80;;
5674;SDS011;2860;54.284;10.158;2024-02-21T13:08:04;5.20;;;4.70;;
5674;SDS011;2860;54.284;10.158;2024-02-21T13:10:32;4.75;;;4.20;;
5674;SDS011;2860;54.284;10.158;2024-02-21T13:12:59;3.88;;;3.63;;
5674;SDS011;2860;54.284;10.158;2024-02-21T13:15:25;5.05;;;3.60;;
5674;SDS011;2860;54.284;10.158;2024-02-21T13:17:52;4.35;;;3.58;;
5674;SDS011;2860;54.284;10.158;2024-02-21T13:20:18;4.57;;;4.25;;
5674;SDS011;2860;54.284;10.158;2024-02-21T13:22:44;8.18;;;4.32;;
5674;SDS011;2860;54.284;10.158;2024-02-21T13:25:10;4.88;;;4.47;;
5674;SDS011;2860;54.284;10.158;2024-02-21T13:27:36;4.97;;;4.57;;
5674;SDS011;2860;54.284;10.158;2024-02-21T13:30:02;5.22;;;4.80;;
5674;SDS011;2860;54.284;10.158;2024-02-21T13:32:30;4.45;;;3.45;;
5674;SDS011;2860;54.284;10.158;2024-02-21T13:34:56;4.40;;;4.00;;
5674;SDS011;2860;54.284;10.158;2024-02-21T13:37:24;4.63;;;4.25;;
5674;SDS011;2860;54.284;10.158;2024-02-21T13:39:51;5.15;;;4.38;;
5674;SDS011;2860;54.284;10.158;2024-02-21T13:42:17;5.07;;;4.45;;
5674;SDS011;2860;54.284;10.158;2024-02-21T13:44:44;6.45;;;4.53;;
5674;SDS011;2860;54.284;10.158;2024-02-21T13:47:09;6.32;;;4.68;;
5674;SDS011;2860;54.284;10.158;2024-02-21T13:49:38;6.43;;;4.88;;
5674;SDS011;2860;54.284;10.158;2024-02-21T13:52:04;9.68;;;6.82;;
5674;SDS011;2860;54.284;10.158;2024-02-21T13:54:29;9.13;;;6.97;;
5674;SDS011;2860;54.284;10.158;2024-02-21T13:56:55;8.68;;;6.78;;
5674;SDS011;2860;54.284;10.158;2024-02-21T13:59:20;11.40;;;7.88;;
5674;SDS011;2860;54.284;10.158;2024-02-21T14:01:46;7.05;;;6.47;;
5674;SDS011;2860;54.284;10.158;2024-02-21T14:04:12;10.57;;;7.40;;
5674;SDS011;2860;54.284;10.158;2024-02-21T14:06:37;10.45;;;8.35;;
5674;SDS011;2860;54.284;10.158;2024-02-21T14:09:08;11.13;;;7.00;;
5674;SDS011;2860;54.284;10.158;2024-02-21T14:11:36;9.82;;;7.47;;
5674;SDS011;2860;54.284;10.158;2024-02-21T14:14:03;8.05;;;7.25;;
5674;SDS011;2860;54.284;10.158;2024-02-21T14:16:29;8.48;;;7.47;;
5674;SDS011;2860;54.284;10.158;2024-02-21T14:18:55;10.20;;;8.27;;
5674;SDS011;2860;54.284;10.158;2024-02-21T14:21:20;10.38;;;8.82;;
5674;SDS011;2860;54.284;10.158;2024-02-21T14:23:46;11.20;;;8.35;;
5674;SDS011;2860;54.284;10.158;2024-02-21T14:26:11;9.93;;;8.82;;
5674;SDS011;2860;54.284;10.158;2024-02-21T14:28:37;15.30;;;10.07;;
5674;SDS011;2860;54.284;10.158;2024-02-21T14:31:02;12.55;;;9.93;;
5674;SDS011;2860;54.284;10.158;2024-02-21T14:33:30;13.07;;;9.80;;
5674;SDS011;2860;54.284;10.158;2024-02-21T14:35:56;16.98;;;9.75;;
5674;SDS011;2860;54.284;10.158;2024-02-21T14:38:22;11.77;;;9.88;;
5674;SDS011;2860;54.284;10.158;2024-02-21T14:40:47;13.30;;;9.98;;
5674;SDS011;2860;54.284;10.158;2024-02-21T14:43:13;20.08;;;11.20;;
5674;SDS011;2860;54.284;10.158;2024-02-21T14:45:39;23.35;;;12.40;;